Time;durP1;ratioP1;P1;durP2;ratioP2;P2;SDS_P1;SDS_P2;PMS_P1;PMS_P2;Temp;Humidity;BMP_temperature;BMP_pressure;BME280_temperature;BME280_humidity;BME280_pressure;Samples;Min_cycle;Max_cycle;Signal;HPM_P1;HPM_P2
2022/11/08 00:02:04;;;;;;;7.47;2.00;;;;;;;;;;5094277;28;20247;-46
2022/11/08 00:04:31;;;;;;;2.67;1.63;;;;;;;;;;5094076;28;20225;-46
2022/11/08 00:15:12;;;;;;;6.37;2.03;;;;;;;;;;5091711;28;20619;-46
2022/11/08 00:17:38;;;;;;;5.23;1.83;;;;;;;;;;5093247;28;20202;-46
2022/11/08 00:20:04;;;;;;;4.87;2.07;;;;;;;;;;5093104;28;20980;-46
2022/11/08 00:22:32;;;;;;;5.67;2.30;;;;;;;;;;5093564;28;20206;-46
2022/11/08 00:24:58;;;;;;;7.30;2.23;;;;;;;;;;5092912;28;20298;-46
2022/11/08 00:27:25;;;;;;;7.37;2.23;;;;;;;;;;5093747;28;20658;-46
2022/11/08 00:29:51;;;;;;;5.50;2.00;;;;;;;;;;5093505;28;20209;-46
2022/11/08 00:32:17;;;;;;;4.57;2.00;;;;;;;;;;5093551;28;20290;-46
2022/11/08 00:34:44;;;;;;;5.70;2.17;;;;;;;;;;5093224;28;20210;-46
2022/11/08 00:37:10;;;;;;;6.53;2.30;;;;;;;;;;5093820;28;20191;-46
2022/11/08 00:39:38;;;;;;;5.67;2.17;;;;;;;;;;5093503;28;20609;-46
2022/11/08 00:42:04;;;;;;;6.27;2.40;;;;;;;;;;5093444;28;20226;-47
2022/11/08 00:44:30;;;;;;;8.20;1.97;;;;;;;;;;5093466;28;20195;-46
2022/11/08 00:46:56;;;;;;;3.97;2.00;;;;;;;;;;5093413;28;20204;-47
2022/11/08 00:49:22;;;;;;;5.70;2.20;;;;;;;;;;5092093;28;20679;-46
2022/11/08 00:51:48;;;;;;;5.77;2.17;;;;;;;;;;5092774;28;20269;-46
2022/11/08 00:54:15;;;;;;;5.00;1.90;;;;;;;;;;5093021;28;20661;-47
2022/11/08 00:56:42;;;;;;;5.57;2.17;;;;;;;;;;5092939;28;20281;-47
2022/11/08 00:59:10;;;;;;;6.30;2.13;;;;;;;;;;5093109;28;20206;-47
2022/11/08 01:01:36;;;;;;;5.17;1.80;;;;;;;;;;5092837;28;20337;-47
2022/11/08 01:04:02;;;;;;;6.50;2.10;;;;;;;;;;5092911;28;20220;-47
2022/11/08 01:06:28;;;;;;;7.40;2.47;;;;;;;;;;5092813;28;20260;-47
2022/11/08 01:08:54;;;;;;;6.07;1.90;;;;;;;;;;5092765;28;20219;-47
2022/11/08 01:11:22;;;;;;;7.20;1.80;;;;;;;;;;5092278;28;20278;-47
2022/11/08 01:13:49;;;;;;;6.00;2.23;;;;;;;;;;5090906;28;20206;-47
2022/11/08 01:16:16;;;;;;;9.20;2.77;;;;;;;;;;5091721;28;20689;-46
2022/11/08 01:18:43;;;;;;;5.07;2.40;;;;;;;;;;5092375;28;20218;-46
2022/11/08 01:21:09;;;;;;;6.13;2.10;;;;;;;;;;5092556;28;20226;-46
2022/11/08 01:23:35;;;;;;;11.07;2.57;;;;;;;;;;5092571;28;20199;-47
2022/11/08 01:26:03;;;;;;;5.07;2.10;;;;;;;;;;5092364;28;20252;-47
2022/11/08 01:28:29;;;;;;;5.33;2.03;;;;;;;;;;5092549;28;20244;-47
2022/11/08 01:30:56;;;;;;;6.23;2.20;;;;;;;;;;5092004;28;20244;-47
2022/11/08 01:33:22;;;;;;;6.50;2.00;;;;;;;;;;5092443;28;20199;-47
2022/11/08 01:35:48;;;;;;;5.53;2.40;;;;;;;;;;5090301;28;20256;-47
2022/11/08 01:38:15;;;;;;;7.03;2.80;;;;;;;;;;5090729;28;20199;-46
2022/11/08 01:40:44;;;;;;;8.93;2.30;;;;;;;;;;5092041;28;20313;-47
2022/11/08 01:43:31;;;;;;;6.43;2.10;;;;;;;;;;5092508;28;20205;-47
2022/11/08 01:46:15;;;;;;;3.83;2.00;;;;;;;;;;5092089;28;20202;-46
2022/11/08 01:48:43;;;;;;;6.37;2.00;;;;;;;;;;5091878;28;20577;-46
2022/11/08 01:51:11;;;;;;;4.93;2.40;;;;;;;;;;5091042;28;20329;-46
2022/11/08 01:53:37;;;;;;;4.10;2.07;;;;;;;;;;5092009;28;20209;-46
2022/11/08 01:56:03;;;;;;;8.37;2.20;;;;;;;;;;5091874;28;20199;-47
2022/11/08 01:58:31;;;;;;;4.90;2.20;;;;;;;;;;5092069;28;20229;-46
2022/11/08 02:00:58;;;;;;;6.17;2.20;;;;;;;;;;5091566;28;20215;-46
2022/11/08 02:03:26;;;;;;;5.63;2.17;;;;;;;;;;5092116;28;20199;-46
2022/11/08 02:05:52;;;;;;;5.23;2.17;;;;;;;;;;5091646;28;20226;-46
2022/11/08 02:08:21;;;;;;;7.43;2.27;;;;;;;;;;5091787;28;20219;-46
2022/11/08 02:10:49;;;;;;;7.23;2.10;;;;;;;;;;5091993;28;20195;-47
2022/11/08 02:13:16;;;;;;;6.73;2.43;;;;;;;;;;5091860;28;20617;-46
2022/11/08 02:15:42;;;;;;;4.47;1.97;;;;;;;;;;5091620;28;20195;-46
2022/11/08 02:18:08;;;;;;;6.67;2.03;;;;;;;;;;5091618;28;20272;-46
2022/11/08 02:20:36;;;;;;;5.20;2.10;;;;;;;;;;5091621;28;20218;-46
2022/11/08 02:23:05;;;;;;;5.20;2.47;;;;;;;;;;5091510;28;20203;-46
2022/11/08 02:25:32;;;;;;;5.03;2.30;;;;;;;;;;5090452;28;20199;-47
2022/11/08 02:27:58;;;;;;;5.73;2.40;;;;;;;;;;5091031;28;20248;-46
2022/11/08 02:30:31;;;;;;;7.60;2.33;;;;;;;;;;5091006;28;20191;-46
2022/11/08 02:32:57;;;;;;;6.07;2.37;;;;;;;;;;5091486;28;20229;-46
2022/11/08 02:35:23;;;;;;;6.53;2.23;;;;;;;;;;5091589;28;20206;-46
2022/11/08 02:37:49;;;;;;;4.97;2.00;;;;;;;;;;5091332;28;20302;-46
2022/11/08 02:40:15;;;;;;;6.90;2.13;;;;;;;;;;5091032;28;20610;-46
2022/11/08 02:42:42;;;;;;;5.57;2.27;;;;;;;;;;5090266;28;20736;-46
2022/11/08 02:45:09;;;;;;;5.57;1.80;;;;;;;;;;5090302;28;20617;-46
2022/11/08 02:47:35;;;;;;;7.67;2.33;;;;;;;;;;5091393;28;20488;-46
2022/11/08 02:50:01;;;;;;;3.97;2.00;;;;;;;;;;5091127;28;20654;-47
2022/11/08 02:52:27;;;;;;;5.87;2.20;;;;;;;;;;5091433;28;20225;-46
2022/11/08 02:54:53;;;;;;;4.20;2.00;;;;;;;;;;5091295;28;20198;-46
2022/11/08 02:57:19;;;;;;;9.23;2.63;;;;;;;;;;5091355;28;20191;-46
2022/11/08 02:59:48;;;;;;;7.67;2.17;;;;;;;;;;5091253;28;20297;-46
2022/11/08 03:02:14;;;;;;;4.30;1.97;;;;;;;;;;5091129;28;20993;-46
2022/11/08 03:04:40;;;;;;;6.03;2.43;;;;;;;;;;5091106;28;20657;-46
2022/11/08 03:07:06;;;;;;;5.40;2.17;;;;;;;;;;5091364;28;20206;-46
2022/11/08 03:09:32;;;;;;;8.87;2.30;;;;;;;;;;5091199;28;20215;-46
2022/11/08 03:11:58;;;;;;;6.13;2.20;;;;;;;;;;5093101;28;20201;-46
2022/11/08 03:14:24;;;;;;;9.23;2.73;;;;;;;;;;5095271;28;20199;-46
2022/11/08 03:16:51;;;;;;;5.13;2.10;;;;;;;;;;5094981;28;20199;-46
2022/11/08 03:19:17;;;;;;;5.83;2.17;;;;;;;;;;5094914;28;20234;-46
2022/11/08 03:21:43;;;;;;;5.93;2.23;;;;;;;;;;5094992;28;21007;-46
2022/11/08 03:24:10;;;;;;;3.37;2.13;;;;;;;;;;5094855;28;20657;-46
2022/11/08 03:26:36;;;;;;;6.60;2.53;;;;;;;;;;5094966;28;20222;-46
2022/11/08 03:29:02;;;;;;;8.27;2.90;;;;;;;;;;5094811;28;20238;-46
2022/11/08 03:31:28;;;;;;;5.60;2.37;;;;;;;;;;5094949;28;20234;-46
2022/11/08 03:33:56;;;;;;;7.20;2.47;;;;;;;;;;5094621;28;20190;-46
2022/11/08 03:36:22;;;;;;;3.73;1.77;;;;;;;;;;5094856;28;20206;-46
2022/11/08 03:38:49;;;;;;;4.07;2.10;;;;;;;;;;5094836;28;20191;-46
2022/11/08 03:41:15;;;;;;;6.37;2.17;;;;;;;;;;5094707;28;20230;-46
2022/11/08 03:43:41;;;;;;;7.33;2.53;;;;;;;;;;5094454;28;20194;-46
2022/11/08 03:46:07;;;;;;;7.03;2.30;;;;;;;;;;5094140;28;20205;-46
2022/11/08 03:48:33;;;;;;;5.10;2.30;;;;;;;;;;5094054;28;20282;-45
2022/11/08 03:51:01;;;;;;;4.67;2.13;;;;;;;;;;5091669;28;20262;-46
2022/11/08 03:53:27;;;;;;;5.27;1.97;;;;;;;;;;5094273;28;20289;-46
2022/11/08 03:55:53;;;;;;;3.57;2.23;;;;;;;;;;5094227;28;20241;-46
2022/11/08 03:58:19;;;;;;;6.93;2.57;;;;;;;;;;5094120;28;20235;-46
2022/11/08 04:00:45;;;;;;;4.60;1.93;;;;;;;;;;5094000;28;20258;-46
2022/11/08 04:03:11;;;;;;;4.67;2.13;;;;;;;;;;5094045;28;20218;-46
2022/11/08 04:05:37;;;;;;;3.80;2.17;;;;;;;;;;5094084;28;20248;-46
2022/11/08 04:08:05;;;;;;;4.97;2.20;;;;;;;;;;5093999;28;20215;-46
2022/11/08 04:10:31;;;;;;;4.00;2.10;;;;;;;;;;5094149;28;20206;-46
2022/11/08 04:15:43;;;;;;;5.43;2.03;;;;;;;;;;5093981;28;20585;-46
2022/11/08 04:23:39;;;;;;;5.47;2.37;;;;;;;;;;5093753;28;20342;-46
2022/11/08 04:26:06;;;;;;;6.50;2.50;;;;;;;;;;5093612;28;20293;-46
2022/11/08 04:28:33;;;;;;;5.47;2.20;;;;;;;;;;5093682;28;20604;-46
2022/11/08 04:31:01;;;;;;;6.83;2.33;;;;;;;;;;5093594;28;20240;-46
2022/11/08 04:33:27;;;;;;;7.93;2.30;;;;;;;;;;5093722;28;20205;-46
2022/11/08 04:35:54;;;;;;;5.73;2.13;;;;;;;;;;5093540;28;20226;-46
2022/11/08 04:38:20;;;;;;;3.83;2.00;;;;;;;;;;5093914;28;20194;-46
2022/11/08 04:40:47;;;;;;;7.03;2.17;;;;;;;;;;5093374;28;20218;-46
2022/11/08 04:43:13;;;;;;;5.87;2.10;;;;;;;;;;5093531;28;20290;-46
2022/11/08 04:45:39;;;;;;;3.50;2.00;;;;;;;;;;5093686;28;20207;-46
2022/11/08 04:48:06;;;;;;;6.20;2.67;;;;;;;;;;5093222;28;20199;-46
2022/11/08 04:50:32;;;;;;;6.60;2.23;;;;;;;;;;5092228;28;20262;-46
2022/11/08 04:52:58;;;;;;;4.67;2.20;;;;;;;;;;5093164;28;20241;-46
2022/11/08 04:55:24;;;;;;;5.20;2.27;;;;;;;;;;5093341;28;20206;-46
2022/11/08 04:57:51;;;;;;;6.80;2.90;;;;;;;;;;5093206;28;20256;-46
2022/11/08 05:00:17;;;;;;;6.13;2.13;;;;;;;;;;5093339;28;20248;-46
2022/11/08 05:02:43;;;;;;;7.30;2.70;;;;;;;;;;5092882;28;20202;-46
2022/11/08 05:05:09;;;;;;;4.10;2.30;;;;;;;;;;5093002;28;20199;-46
2022/11/08 05:07:35;;;;;;;9.10;2.30;;;;;;;;;;5092895;28;20282;-46
2022/11/08 05:10:01;;;;;;;6.07;2.50;;;;;;;;;;5092901;28;20195;-46
2022/11/08 05:12:27;;;;;;;3.60;2.03;;;;;;;;;;5092853;28;20202;-46
2022/11/08 05:14:55;;;;;;;8.27;2.37;;;;;;;;;;5093011;28;20206;-46
2022/11/08 05:17:21;;;;;;;4.37;2.10;;;;;;;;;;5092828;28;20210;-46
2022/11/08 05:25:17;;;;;;;3.97;2.10;;;;;;;;;;5092694;28;20268;-46
2022/11/08 05:27:43;;;;;;;6.03;2.10;;;;;;;;;;5092560;28;20581;-46
2022/11/08 05:30:10;;;;;;;4.87;2.00;;;;;;;;;;5092491;28;20676;-46
2022/11/08 05:32:37;;;;;;;3.50;2.30;;;;;;;;;;5092565;28;20256;-46
2022/11/08 05:35:03;;;;;;;6.70;2.33;;;;;;;;;;5092026;28;20637;-46
2022/11/08 05:37:29;;;;;;;4.43;2.17;;;;;;;;;;5092305;28;20263;-46
2022/11/08 05:39:55;;;;;;;3.73;2.03;;;;;;;;;;5090872;28;20598;-46
2022/11/08 05:42:21;;;;;;;4.63;2.10;;;;;;;;;;5090540;28;20219;-46
2022/11/08 05:44:47;;;;;;;5.87;2.37;;;;;;;;;;5092019;28;20264;-45
2022/11/08 05:47:14;;;;;;;5.20;2.30;;;;;;;;;;5091658;28;20199;-46
2022/11/08 05:49:40;;;;;;;8.07;2.80;;;;;;;;;;5091490;28;20198;-46
2022/11/08 05:52:06;;;;;;;6.63;2.33;;;;;;;;;;5091231;28;20231;-46
2022/11/08 05:54:32;;;;;;;5.13;2.10;;;;;;;;;;5091781;28;20205;-48
2022/11/08 05:56:58;;;;;;;8.20;2.43;;;;;;;;;;5091621;28;20226;-46
2022/11/08 05:59:24;;;;;;;4.93;2.10;;;;;;;;;;5092060;28;20252;-46
2022/11/08 06:01:50;;;;;;;5.67;2.77;;;;;;;;;;5091404;28;20584;-46
2022/11/08 06:04:18;;;;;;;2.93;2.10;;;;;;;;;;5091929;28;20205;-46
2022/11/08 06:06:44;;;;;;;5.43;2.53;;;;;;;;;;5092107;28;20242;-45
2022/11/08 06:09:10;;;;;;;5.87;3.03;;;;;;;;;;5091661;28;20484;-46
2022/11/08 06:11:37;;;;;;;4.27;2.43;;;;;;;;;;5091368;28;20202;-46
2022/11/08 06:14:03;;;;;;;4.43;2.30;;;;;;;;;;5091502;28;20680;-46
2022/11/08 06:16:29;;;;;;;5.47;2.47;;;;;;;;;;5091764;28;20222;-46
2022/11/08 06:18:55;;;;;;;3.73;2.30;;;;;;;;;;5089340;28;20688;-46
2022/11/08 06:21:22;;;;;;;10.47;3.10;;;;;;;;;;5091649;28;20724;-46
2022/11/08 06:23:51;;;;;;;8.67;2.90;;;;;;;;;;5091631;28;20245;-46
2022/11/08 06:26:17;;;;;;;3.40;2.33;;;;;;;;;;5091693;28;20190;-46
2022/11/08 06:28:43;;;;;;;4.77;2.70;;;;;;;;;;5091409;28;20190;-47
2022/11/08 06:31:09;;;;;;;5.40;2.70;;;;;;;;;;5091616;28;20632;-46
2022/11/08 06:33:36;;;;;;;5.80;2.60;;;;;;;;;;5091169;28;20205;-47
2022/11/08 06:36:02;;;;;;;5.97;2.73;;;;;;;;;;5091369;28;20198;-46
2022/11/08 06:38:29;;;;;;;6.13;2.23;;;;;;;;;;5091495;28;20681;-46
2022/11/08 06:40:58;;;;;;;5.07;2.47;;;;;;;;;;5090727;28;20692;-46
2022/11/08 06:43:24;;;;;;;7.20;3.17;;;;;;;;;;5091202;28;20227;-46
2022/11/08 06:45:50;;;;;;;6.20;3.20;;;;;;;;;;5091422;28;20276;-46
2022/11/08 06:48:16;;;;;;;6.53;2.57;;;;;;;;;;5094643;28;20246;-46
2022/11/08 06:50:43;;;;;;;5.83;2.73;;;;;;;;;;5095188;28;20258;-46
2022/11/08 06:53:11;;;;;;;5.20;2.40;;;;;;;;;;5095388;28;20202;-46
2022/11/08 06:55:38;;;;;;;5.43;2.90;;;;;;;;;;5095567;28;20657;-46
2022/11/08 06:58:04;;;;;;;8.07;2.60;;;;;;;;;;5095337;28;20303;-46
2022/11/08 07:00:31;;;;;;;5.40;2.70;;;;;;;;;;5095199;28;20289;-46
2022/11/08 07:02:58;;;;;;;9.50;2.97;;;;;;;;;;5094953;28;20203;-46
2022/11/08 07:05:24;;;;;;;6.47;2.50;;;;;;;;;;5094735;28;20203;-46
2022/11/08 07:07:53;;;;;;;4.63;2.40;;;;;;;;;;5095202;28;20229;-46
2022/11/08 07:10:19;;;;;;;5.17;2.83;;;;;;;;;;5095028;28;20199;-45
2022/11/08 07:12:47;;;;;;;6.80;2.80;;;;;;;;;;5095036;28;20191;-46
2022/11/08 07:15:14;;;;;;;6.73;2.50;;;;;;;;;;5094942;28;20207;-46
2022/11/08 07:17:40;;;;;;;3.23;2.30;;;;;;;;;;5094913;28;20299;-45
2022/11/08 07:20:07;;;;;;;6.07;2.67;;;;;;;;;;5094825;28;20202;-46
2022/11/08 07:22:33;;;;;;;3.77;2.17;;;;;;;;;;5094705;28;20705;-46
2022/11/08 07:24:59;;;;;;;4.67;2.30;;;;;;;;;;5093792;28;20218;-46
2022/11/08 07:27:26;;;;;;;5.80;2.37;;;;;;;;;;5093866;28;20203;-46
2022/11/08 07:29:54;;;;;;;5.93;2.40;;;;;;;;;;5094306;28;20710;-46
2022/11/08 07:32:20;;;;;;;7.33;2.57;;;;;;;;;;5094766;28;20677;-46
2022/11/08 07:34:46;;;;;;;6.80;2.70;;;;;;;;;;5094757;28;20470;-46
2022/11/08 07:37:12;;;;;;;6.43;2.60;;;;;;;;;;5092773;28;20203;-46
2022/11/08 07:39:38;;;;;;;3.30;2.20;;;;;;;;;;5094024;28;20248;-46
2022/11/08 07:42:04;;;;;;;7.40;2.60;;;;;;;;;;5094093;28;20227;-46
2022/11/08 07:44:30;;;;;;;5.90;2.20;;;;;;;;;;5094264;28;20222;-45
2022/11/08 07:46:57;;;;;;;7.03;2.63;;;;;;;;;;5093693;28;20229;-46
2022/11/08 07:49:23;;;;;;;5.70;2.50;;;;;;;;;;5093222;28;20203;-45
2022/11/08 07:51:49;;;;;;;5.20;2.00;;;;;;;;;;5093905;28;20313;-46
2022/11/08 07:54:15;;;;;;;4.30;2.20;;;;;;;;;;5093457;28;20626;-46
2022/11/08 07:56:41;;;;;;;6.80;2.60;;;;;;;;;;5093775;28;20206;-46
2022/11/08 07:59:07;;;;;;;5.40;2.30;;;;;;;;;;5093482;28;20295;-46
2022/11/08 08:01:33;;;;;;;6.43;2.80;;;;;;;;;;5092928;28;20321;-46
2022/11/08 08:04:01;;;;;;;7.00;2.73;;;;;;;;;;5092658;28;20240;-46
2022/11/08 08:06:27;;;;;;;4.73;2.07;;;;;;;;;;5093858;28;20570;-46
2022/11/08 08:08:53;;;;;;;3.90;2.20;;;;;;;;;;5093587;28;20211;-46
2022/11/08 08:11:19;;;;;;;5.47;2.67;;;;;;;;;;5093801;28;20301;-46
2022/11/08 08:13:45;;;;;;;5.07;2.40;;;;;;;;;;5093710;28;20198;-46
2022/11/08 08:16:11;;;;;;;3.87;2.43;;;;;;;;;;5093811;28;20223;-46
2022/11/08 08:18:37;;;;;;;4.20;2.33;;;;;;;;;;5093775;28;20229;-46
2022/11/08 08:21:04;;;;;;;5.80;2.70;;;;;;;;;;5093490;28;20226;-46
2022/11/08 08:23:30;;;;;;;4.13;1.90;;;;;;;;;;5093745;28;20201;-46
2022/11/08 08:25:56;;;;;;;4.93;2.60;;;;;;;;;;5093150;28;20248;-46
2022/11/08 08:28:22;;;;;;;4.20;2.50;;;;;;;;;;5093509;28;20199;-46
2022/11/08 08:30:48;;;;;;;4.43;2.63;;;;;;;;;;5092659;28;20214;-46
2022/11/08 08:33:15;;;;;;;5.37;2.30;;;;;;;;;;5093190;28;20701;-46
2022/11/08 08:35:42;;;;;;;3.37;1.87;;;;;;;;;;5093226;28;20190;-46
2022/11/08 08:38:10;;;;;;;5.57;2.43;;;;;;;;;;5092144;28;20203;-45
2022/11/08 08:40:36;;;;;;;4.03;2.23;;;;;;;;;;5092586;28;20289;-45
2022/11/08 08:43:03;;;;;;;6.20;2.60;;;;;;;;;;5092611;28;20567;-45
2022/11/08 08:45:30;;;;;;;6.07;2.17;;;;;;;;;;5092634;28;20252;-45
2022/11/08 08:47:57;;;;;;;3.90;2.10;;;;;;;;;;5092388;28;20321;-45
2022/11/08 08:50:24;;;;;;;3.87;2.20;;;;;;;;;;5092422;28;20235;-46
2022/11/08 08:52:50;;;;;;;6.43;2.50;;;;;;;;;;5093104;28;20195;-46
2022/11/08 08:55:17;;;;;;;7.77;2.40;;;;;;;;;;5091513;28;20302;-46
2022/11/08 08:57:44;;;;;;;4.53;2.47;;;;;;;;;;5091517;28;20602;-46
2022/11/08 09:00:11;;;;;;;5.07;2.20;;;;;;;;;;5092703;28;20558;-47
2022/11/08 09:02:37;;;;;;;5.00;2.10;;;;;;;;;;5091338;28;20292;-46
2022/11/08 09:05:03;;;;;;;3.43;2.00;;;;;;;;;;5091250;28;20199;-46
2022/11/08 09:07:29;;;;;;;5.97;2.47;;;;;;;;;;5092819;28;20604;-49
2022/11/08 09:09:55;;;;;;;4.43;2.27;;;;;;;;;;5091750;28;20313;-46
2022/11/08 09:12:22;;;;;;;4.03;2.50;;;;;;;;;;5092624;28;20252;-47
2022/11/08 09:14:48;;;;;;;4.33;2.40;;;;;;;;;;5092034;28;20298;-48
2022/11/08 09:17:14;;;;;;;5.10;2.40;;;;;;;;;;5092091;28;20198;-47
2022/11/08 09:19:41;;;;;;;4.07;2.50;;;;;;;;;;5092247;28;20625;-47
2022/11/08 09:22:07;;;;;;;3.57;2.00;;;;;;;;;;5092165;28;20309;-47
2022/11/08 09:24:33;;;;;;;4.00;2.53;;;;;;;;;;5092334;28;20282;-47
2022/11/08 09:27:02;;;;;;;3.23;2.00;;;;;;;;;;5092243;28;20191;-46
2022/11/08 09:29:29;;;;;;;3.73;2.20;;;;;;;;;;5092724;28;20194;-45
2022/11/08 09:31:55;;;;;;;3.97;1.90;;;;;;;;;;5091537;28;20260;-46
2022/11/08 09:34:22;;;;;;;5.17;1.90;;;;;;;;;;5090464;28;20191;-46
2022/11/08 09:36:48;;;;;;;4.30;2.20;;;;;;;;;;5091936;28;20205;-46
2022/11/08 09:39:15;;;;;;;3.57;2.00;;;;;;;;;;5091728;28;20290;-46
2022/11/08 09:41:59;;;;;;;3.53;1.73;;;;;;;;;;5091688;28;20305;-47
2022/11/08 09:44:45;;;;;;;4.57;1.90;;;;;;;;;;5081474;28;20206;-47
2022/11/08 09:47:16;;;;;;;2.33;1.60;;;;;;;;;;5084537;28;20200;-46
2022/11/08 09:49:43;;;;;;;3.27;1.93;;;;;;;;;;5091738;28;20268;-46
2022/11/08 09:52:12;;;;;;;3.50;1.73;;;;;;;;;;5091301;28;20222;-47
2022/11/08 09:54:41;;;;;;;3.77;1.80;;;;;;;;;;5091375;28;20340;-46
2022/11/08 09:57:15;;;;;;;4.80;1.90;;;;;;;;;;5090979;28;20608;-48
2022/11/08 09:59:45;;;;;;;6.63;2.00;;;;;;;;;;5090921;28;20206;-47
2022/11/08 10:02:16;;;;;;;3.10;1.83;;;;;;;;;;5092003;28;20659;-47
2022/11/08 10:04:42;;;;;;;3.13;1.57;;;;;;;;;;5091708;28;20205;-47
2022/11/08 10:07:13;;;;;;;2.60;1.60;;;;;;;;;;5092513;28;20248;-47
2022/11/08 10:09:48;;;;;;;4.77;1.83;;;;;;;;;;5090757;28;20553;-48
2022/11/08 10:12:17;;;;;;;3.50;1.90;;;;;;;;;;5092359;28;20219;-48
2022/11/08 10:14:48;;;;;;;3.20;1.60;;;;;;;;;;5092390;28;20307;-47
2022/11/08 10:17:28;;;;;;;4.23;1.40;;;;;;;;;;5092262;28;20258;-46
2022/11/08 10:20:02;;;;;;;4.57;2.10;;;;;;;;;;5091582;28;20307;-46
2022/11/08 10:22:31;;;;;;;3.63;1.80;;;;;;;;;;5089039;28;20222;-47
2022/11/08 10:24:59;;;;;;;3.23;1.60;;;;;;;;;;5091222;28;20201;-46
2022/11/08 10:27:29;;;;;;;2.43;1.30;;;;;;;;;;5092227;28;20552;-46
2022/11/08 10:29:57;;;;;;;4.67;1.90;;;;;;;;;;5091974;28;20207;-46
2022/11/08 10:32:25;;;;;;;3.83;1.80;;;;;;;;;;5091921;28;20278;-46
2022/11/08 10:34:54;;;;;;;2.73;1.37;;;;;;;;;;5090569;28;20298;-46
2022/11/08 10:37:21;;;;;;;3.67;1.73;;;;;;;;;;5092141;28;20202;-46
2022/11/08 10:39:51;;;;;;;2.03;1.23;;;;;;;;;;5089983;28;20195;-46
2022/11/08 10:42:20;;;;;;;4.23;1.67;;;;;;;;;;5089832;28;20714;-47
2022/11/08 10:44:46;;;;;;;2.43;1.33;;;;;;;;;;5091695;28;20199;-47
2022/11/08 10:47:13;;;;;;;2.23;1.50;;;;;;;;;;5091859;28;20217;-47
2022/11/08 10:49:41;;;;;;;1.60;1.30;;;;;;;;;;5091370;28;20222;-47
2022/11/08 10:52:15;;;;;;;2.63;1.53;;;;;;;;;;5091217;28;20234;-46
2022/11/08 10:54:46;;;;;;;14.80;1.60;;;;;;;;;;5091315;28;20250;-46
2022/11/08 10:57:13;;;;;;;2.00;1.20;;;;;;;;;;5091807;28;20278;-46
2022/11/08 10:59:39;;;;;;;3.17;1.40;;;;;;;;;;5091761;28;20668;-46
2022/11/08 11:02:16;;;;;;;2.00;1.30;;;;;;;;;;5091510;28;20262;-47
2022/11/08 11:04:44;;;;;;;2.47;1.30;;;;;;;;;;5091128;28;20194;-47
2022/11/08 11:07:25;;;;;;;3.07;1.60;;;;;;;;;;5091587;28;20285;-47
2022/11/08 11:09:51;;;;;;;3.23;1.70;;;;;;;;;;5089537;28;20201;-47
2022/11/08 11:12:18;;;;;;;2.57;1.87;;;;;;;;;;5091438;28;20665;-47
2022/11/08 11:14:44;;;;;;;4.10;1.50;;;;;;;;;;5091450;28;20195;-46
2022/11/08 11:17:14;;;;;;;4.00;1.53;;;;;;;;;;5091480;28;20202;-47
2022/11/08 11:19:42;;;;;;;3.37;1.70;;;;;;;;;;5091438;28;20191;-46
2022/11/08 11:22:11;;;;;;;2.93;1.13;;;;;;;;;;5089081;28;20261;-46
2022/11/08 11:24:46;;;;;;;2.23;1.50;;;;;;;;;;5090936;28;20203;-47
2022/11/08 11:27:18;;;;;;;2.70;1.60;;;;;;;;;;5091451;28;20202;-46
2022/11/08 11:29:44;;;;;;;2.37;1.40;;;;;;;;;;5089745;28;20229;-48
2022/11/08 11:32:23;;;;;;;3.83;1.63;;;;;;;;;;5091136;28;20677;-48
2022/11/08 11:34:54;;;;;;;3.13;1.50;;;;;;;;;;5095199;28;20187;-48
2022/11/08 11:37:25;;;;;;;2.40;1.40;;;;;;;;;;5094539;28;20199;-47
2022/11/08 11:39:57;;;;;;;2.60;1.63;;;;;;;;;;5092862;28;20282;-48
2022/11/08 11:42:26;;;;;;;2.20;1.67;;;;;;;;;;5094937;28;20227;-48
2022/11/08 11:44:58;;;;;;;1.57;1.43;;;;;;;;;;5095042;28;20190;-47
2022/11/08 11:47:29;;;;;;;3.43;1.80;;;;;;;;;;5095074;28;20194;-48
2022/11/08 11:49:55;;;;;;;2.23;1.70;;;;;;;;;;5095011;28;20213;-47
2022/11/08 11:52:21;;;;;;;3.07;1.70;;;;;;;;;;5094767;28;20693;-47
2022/11/08 11:54:49;;;;;;;2.97;1.57;;;;;;;;;;5094917;28;20549;-48
2022/11/08 11:57:20;;;;;;;4.47;1.63;;;;;;;;;;5094762;28;20209;-47
2022/11/08 11:59:56;;;;;;;6.37;2.00;;;;;;;;;;5094720;28;20684;-47
2022/11/08 12:02:51;;;;;;;2.97;1.40;;;;;;;;;;5094635;28;20245;-47
2022/11/08 12:05:27;;;;;;;2.30;1.50;;;;;;;;;;5093086;28;20191;-47
2022/11/08 12:07:57;;;;;;;3.17;1.30;;;;;;;;;;5091298;28;20222;-47
2022/11/08 12:10:29;;;;;;;1.97;1.30;;;;;;;;;;5093174;28;20233;-47
2022/11/08 12:12:59;;;;;;;2.63;1.37;;;;;;;;;;5094390;28;20685;-48
2022/11/08 12:15:29;;;;;;;4.10;1.50;;;;;;;;;;5094622;28;20206;-48
2022/11/08 12:18:05;;;;;;;3.47;1.50;;;;;;;;;;5094308;28;20207;-47
2022/11/08 12:20:38;;;;;;;2.23;1.33;;;;;;;;;;5094559;28;20574;-47
2022/11/08 12:23:14;;;;;;;1.70;1.40;;;;;;;;;;5092135;28;20222;-47
2022/11/08 12:25:46;;;;;;;2.70;1.50;;;;;;;;;;5093961;28;20226;-47
2022/11/08 12:28:20;;;;;;;2.73;1.63;;;;;;;;;;5093751;28;20281;-47
2022/11/08 12:30:50;;;;;;;1.40;1.10;;;;;;;;;;5093937;28;20632;-47
2022/11/08 12:33:21;;;;;;;2.60;1.30;;;;;;;;;;5093806;28;20661;-47
2022/11/08 12:35:54;;;;;;;2.27;1.20;;;;;;;;;;5092301;28;20260;-46
2022/11/08 12:38:26;;;;;;;1.90;1.40;;;;;;;;;;5094031;28;20248;-47
2022/11/08 12:40:55;;;;;;;2.20;1.33;;;;;;;;;;5093916;28;20200;-47
2022/11/08 12:43:52;;;;;;;3.53;1.50;;;;;;;;;;5093316;28;20217;-47
2022/11/08 12:46:18;;;;;;;3.73;1.40;;;;;;;;;;5031428;28;20205;-47
2022/11/08 12:49:03;;;;;;;2.13;1.50;;;;;;;;;;5079051;28;20199;-47
2022/11/08 12:51:36;;;;;;;3.13;1.43;;;;;;;;;;5093710;28;20230;-47
2022/11/08 12:54:14;;;;;;;3.40;1.53;;;;;;;;;;5093698;28;20198;-47
2022/11/08 12:56:43;;;;;;;6.10;1.80;;;;;;;;;;5093751;28;20195;-47
2022/11/08 12:59:16;;;;;;;4.07;1.50;;;;;;;;;;5093654;28;20207;-47
2022/11/08 13:01:43;;;;;;;3.30;1.43;;;;;;;;;;5093701;28;20215;-47
2022/11/08 13:04:27;;;;;;;2.77;1.50;;;;;;;;;;5093449;28;20191;-47
2022/11/08 13:06:56;;;;;;;3.20;1.53;;;;;;;;;;5093519;28;20197;-47
2022/11/08 13:09:27;;;;;;;1.60;1.23;;;;;;;;;;5093271;28;20713;-47
2022/11/08 13:12:01;;;;;;;2.73;1.33;;;;;;;;;;5093316;28;20195;-47
2022/11/08 13:14:27;;;;;;;1.73;1.50;;;;;;;;;;5093577;28;20210;-47
2022/11/08 13:17:13;;;;;;;3.17;1.20;;;;;;;;;;5093252;28;20203;-47
2022/11/08 13:19:53;;;;;;;2.73;1.33;;;;;;;;;;5093338;28;20198;-47
2022/11/08 13:22:34;;;;;;;1.60;1.30;;;;;;;;;;5093186;28;20223;-47
2022/11/08 13:25:01;;;;;;;3.40;1.47;;;;;;;;;;5092893;28;20201;-47
2022/11/08 13:27:33;;;;;;;2.63;1.33;;;;;;;;;;5092929;28;20544;-47
2022/11/08 13:30:04;;;;;;;2.80;1.50;;;;;;;;;;5092981;28;20202;-47
2022/11/08 13:32:39;;;;;;;2.97;1.80;;;;;;;;;;5092962;28;20198;-47
2022/11/08 13:35:08;;;;;;;2.77;1.50;;;;;;;;;;5092898;28;20665;-47
2022/11/08 13:37:41;;;;;;;2.03;1.53;;;;;;;;;;5093113;28;20195;-47
2022/11/08 13:40:16;;;;;;;2.40;1.60;;;;;;;;;;5092843;28;20219;-47
2022/11/08 13:42:57;;;;;;;2.13;1.33;;;;;;;;;;5092853;28;20218;-47
2022/11/08 13:45:26;;;;;;;1.37;1.23;;;;;;;;;;5092615;28;20570;-47
2022/11/08 13:47:56;;;;;;;1.90;1.40;;;;;;;;;;5092641;28;20254;-47
2022/11/08 13:50:41;;;;;;;1.70;1.50;;;;;;;;;;5092411;28;20239;-48
2022/11/08 13:53:09;;;;;;;1.93;1.60;;;;;;;;;;5092498;28;20175;-47
2022/11/08 13:55:44;;;;;;;2.90;1.63;;;;;;;;;;5092297;28;20195;-47
2022/11/08 13:58:24;;;;;;;2.57;1.50;;;;;;;;;;5092311;28;20554;-47
2022/11/08 14:00:52;;;;;;;1.70;1.50;;;;;;;;;;5092047;28;20206;-47
2022/11/08 14:03:33;;;;;;;2.27;1.47;;;;;;;;;;5092156;28;20728;-47
2022/11/08 14:06:00;;;;;;;2.90;1.60;;;;;;;;;;5080774;28;20568;-47
2022/11/08 14:08:28;;;;;;;2.73;1.40;;;;;;;;;;5091717;28;20234;-47
2022/11/08 14:11:15;;;;;;;3.17;1.50;;;;;;;;;;5089200;28;20775;-47
2022/11/08 14:13:44;;;;;;;1.47;1.30;;;;;;;;;;5091638;28;20194;-47
2022/11/08 14:16:15;;;;;;;2.50;1.40;;;;;;;;;;5091857;28;20198;-46
2022/11/08 14:18:42;;;;;;;3.27;1.20;;;;;;;;;;5090897;28;20214;-47
2022/11/08 14:21:08;;;;;;;2.77;1.30;;;;;;;;;;5091496;28;20195;-46
2022/11/08 14:23:36;;;;;;;1.83;1.40;;;;;;;;;;5091631;28;20971;-47
2022/11/08 14:26:04;;;;;;;2.50;1.50;;;;;;;;;;5090701;28;20654;-47
2022/11/08 14:28:32;;;;;;;2.27;1.60;;;;;;;;;;5090931;28;20244;-47
2022/11/08 14:30:59;;;;;;;3.67;1.40;;;;;;;;;;5091518;28;20650;-47
2022/11/08 14:33:27;;;;;;;2.47;1.20;;;;;;;;;;5091654;28;20676;-47
2022/11/08 14:35:54;;;;;;;4.23;1.63;;;;;;;;;;5091642;28;20206;-47
2022/11/08 14:38:21;;;;;;;3.13;1.40;;;;;;;;;;5091418;28;20206;-47
2022/11/08 14:40:48;;;;;;;2.20;1.50;;;;;;;;;;5090834;28;20202;-46
2022/11/08 14:43:14;;;;;;;1.50;1.27;;;;;;;;;;5090802;28;20226;-47
2022/11/08 14:45:42;;;;;;;2.57;1.50;;;;;;;;;;5091005;28;20191;-47
2022/11/08 14:48:11;;;;;;;2.70;1.60;;;;;;;;;;5091227;28;20281;-47
2022/11/08 14:50:38;;;;;;;1.67;1.20;;;;;;;;;;5091293;28;20242;-47
2022/11/08 14:53:19;;;;;;;4.97;1.67;;;;;;;;;;5091352;28;20197;-47
2022/11/08 14:55:45;;;;;;;1.53;1.23;;;;;;;;;;5091397;28;20202;-47
2022/11/08 14:58:12;;;;;;;1.80;1.43;;;;;;;;;;5091358;28;20278;-47
2022/11/08 15:00:40;;;;;;;2.10;1.50;;;;;;;;;;5091487;28;20278;-47
2022/11/08 15:03:12;;;;;;;1.67;1.20;;;;;;;;;;5090904;28;20992;-47
2022/11/08 15:05:41;;;;;;;1.90;1.47;;;;;;;;;;5091077;28;20669;-46
2022/11/08 15:08:15;;;;;;;4.03;1.60;;;;;;;;;;5093334;28;20226;-46
2022/11/08 15:10:51;;;;;;;2.43;1.77;;;;;;;;;;5094703;28;20194;-47
2022/11/08 15:13:17;;;;;;;2.80;1.60;;;;;;;;;;5094662;28;20294;-46